Time;durP1;ratioP1;P1;durP2;ratioP2;P2;SDS_P1;SDS_P2;PMS_P1;PMS_P2;Temp;Humidity;BMP_temperature;BMP_pressure;BME280_temperature;BME280_humidity;BME280_pressure;Samples;Min_cycle;Max_cycle;Signal;HPM_P1;HPM_P2
2023/08/26 00:07:24;;;;;;;18.92;4.75;;;31.00;23.60;;;;;;20921744;28;20051;-57
2023/08/26 00:17:25;;;;;;;14.68;4.90;;;30.90;24.20;;;;;;20922350;28;20490;-57
2023/08/26 00:27:26;;;;;;;18.13;5.10;;;30.90;24.00;;;;;;20919961;28;20041;-58
2023/08/26 00:37:27;;;;;;;16.50;5.10;;;30.80;24.10;;;;;;20920684;28;20049;-58
2023/08/26 00:47:27;;;;;;;15.07;4.22;;;30.70;23.90;;;;;;20918498;28;20052;-58
2023/08/26 00:57:28;;;;;;;15.52;5.05;;;30.70;23.90;;;;;;20919487;28;20045;-57
2023/08/26 01:07:29;;;;;;;13.00;4.68;;;30.60;23.90;;;;;;20917173;28;20045;-58
2023/08/26 01:17:30;;;;;;;18.27;4.55;;;30.60;24.10;;;;;;20917925;28;20143;-57
2023/08/26 01:27:31;;;;;;;15.40;4.93;;;30.50;24.20;;;;;;20915987;28;20574;-57
2023/08/26 01:37:32;;;;;;;21.52;5.63;;;30.00;24.90;;;;;;20915871;28;20077;-57
2023/08/26 01:47:33;;;;;;;23.15;5.75;;;29.80;27.10;;;;;;20914612;28;20045;-57
2023/08/26 01:57:34;;;;;;;12.30;5.35;;;29.60;26.00;;;;;;20914472;28;20438;-57
2023/08/26 02:07:34;;;;;;;20.15;4.65;;;29.60;25.40;;;;;;20913315;28;20071;-59
2023/08/26 02:17:35;;;;;;;17.48;4.90;;;29.50;25.80;;;;;;20910645;28;20098;-57
2023/08/26 02:27:36;;;;;;;15.25;4.72;;;29.20;26.60;;;;;;20911456;28;20041;-57
2023/08/26 02:37:36;;;;;;;21.80;12.18;;;29.10;26.80;;;;;;20912993;28;20187;-57
2023/08/26 02:47:37;;;;;;;9.93;3.38;;;29.00;27.30;;;;;;20926911;28;20148;-57
2023/08/26 02:57:39;;;;;;;12.13;2.70;;;28.90;27.40;;;;;;20927326;28;20037;-57
2023/08/26 03:07:40;;;;;;;11.18;3.17;;;28.80;28.10;;;;;;20926540;28;20045;-57
2023/08/26 03:17:40;;;;;;;8.88;2.63;;;28.70;28.70;;;;;;20925417;28;20101;-58
2023/08/26 03:27:41;;;;;;;12.43;3.25;;;28.60;29.10;;;;;;20925962;28;20581;-57
2023/08/26 03:37:42;;;;;;;11.13;2.70;;;28.60;29.30;;;;;;20926205;28;20056;-56
2023/08/26 03:47:43;;;;;;;9.60;2.85;;;28.60;29.40;;;;;;20924934;28;20076;-58
2023/08/26 03:57:43;;;;;;;15.63;2.50;;;28.70;29.30;;;;;;20924364;28;20048;-58
2023/08/26 04:07:44;;;;;;;10.15;3.33;;;28.80;29.30;;;;;;20923476;28;20073;-57
2023/08/26 04:17:45;;;;;;;7.53;2.58;;;28.90;29.10;;;;;;20922940;28;20076;-57
2023/08/26 04:27:46;;;;;;;12.32;3.03;;;28.90;29.00;;;;;;20921721;28;20418;-57
2023/08/26 04:37:46;;;;;;;10.30;3.05;;;29.00;28.80;;;;;;20921374;28;20084;-57
2023/08/26 04:47:47;;;;;;;18.67;7.03;;;28.90;28.60;;;;;;20920709;28;20049;-57
2023/08/26 04:57:48;;;;;;;15.23;3.85;;;28.80;28.30;;;;;;20919562;28;20047;-58
2023/08/26 05:07:49;;;;;;;17.40;3.92;;;28.80;27.90;;;;;;20917708;28;20081;-57
2023/08/26 05:17:49;;;;;;;12.27;4.05;;;28.90;28.30;;;;;;20916541;28;20037;-57
2023/08/26 05:27:50;;;;;;;15.88;4.63;;;28.80;28.80;;;;;;20915442;28;20060;-57
2023/08/26 05:37:51;;;;;;;18.98;5.50;;;28.80;28.30;;;;;;20916451;28;20045;-56
2023/08/26 05:47:53;;;;;;;24.40;7.22;;;28.60;28.50;;;;;;20915457;28;20047;-57
2023/08/26 05:57:53;;;;;;;19.13;8.75;;;28.60;28.40;;;;;;20914958;28;20041;-58
2023/08/26 06:07:54;;;;;;;20.52;8.65;;;28.50;28.20;;;;;;20914383;28;20048;-58
2023/08/26 06:17:55;;;;;;;;;;;28.50;28.00;;;;;;20914015;28;20088;-57
2023/08/26 06:27:56;;;;;;;22.50;10.80;;;28.20;28.10;;;;;;20913268;28;19966;-57
2023/08/26 06:37:56;;;;;;;;;;;28.30;28.10;;;;;;20912170;28;20053;-58
2023/08/26 06:47:57;;;;;;;30.50;9.45;;;28.40;28.10;;;;;;20910995;28;19920;-58
2023/08/26 06:57:58;;;;;;;19.40;7.55;;;28.50;28.50;;;;;;20912298;28;20063;-57
2023/08/26 07:07:59;;;;;;;16.35;6.60;;;28.40;28.80;;;;;;20911524;28;20073;-56
2023/08/26 07:18:00;;;;;;;12.18;5.03;;;28.50;28.70;;;;;;20911158;28;20068;-57
2023/08/26 07:28:00;;;;;;;15.95;7.05;;;28.40;28.60;;;;;;20918860;28;20104;-57
2023/08/26 07:38:01;;;;;;;;;;;28.30;28.40;;;;;;20925830;28;20055;-58
2023/08/26 07:48:02;;;;;;;11.90;4.63;;;28.20;29.30;;;;;;20923173;28;19921;-58
2023/08/26 07:58:02;;;;;;;;;;;28.20;29.20;;;;;;20924288;28;20049;-56
2023/08/26 08:08:03;;;;;;;13.77;6.80;;;28.20;29.10;;;;;;20923365;28;19971;-57
2023/08/26 08:18:04;;;;;;;14.25;6.15;;;28.20;30.10;;;;;;20922040;28;20084;-58
2023/08/26 08:28:05;;;;;;;;;;;28.20;30.00;;;;;;20921214;28;20056;-58
2023/08/26 08:38:06;;;;;;;15.67;8.37;;;28.30;29.40;;;;;;20919387;28;19920;-57
2023/08/26 08:48:07;;;;;;;;;;;28.30;29.50;;;;;;20920177;28;20045;-58
2023/08/26 08:58:10;;;;;;;13.90;8.50;;;28.10;29.60;;;;;;20918855;28;19920;-57
2023/08/26 09:08:12;;;;;;;13.35;7.30;;;28.20;29.80;;;;;;20918475;28;20048;-56
2023/08/26 09:18:13;;;;;;;9.65;5.63;;;28.40;29.50;;;;;;20917965;28;20052;-57
2023/08/26 09:28:14;;;;;;;10.82;6.50;;;28.40;30.10;;;;;;20916793;28;20053;-57
2023/08/26 09:38:15;;;;;;;9.15;5.40;;;28.50;29.20;;;;;;20916206;28;20092;-57
2023/08/26 09:48:23;;;;;;;13.07;5.32;;;28.60;28.30;;;;;;20914881;28;20041;-57
2023/08/26 09:58:24;;;;;;;10.73;5.50;;;28.70;30.00;;;;;;20914948;28;20040;-56
2023/08/26 10:08:31;;;;;;;12.55;6.63;;;28.70;29.00;;;;;;20914079;28;20589;-57
2023/08/26 10:18:43;;;;;;;7.75;4.60;;;28.70;28.90;;;;;;20913517;28;20238;-58
2023/08/26 10:28:45;;;;;;;8.35;4.30;;;28.70;28.10;;;;;;20911653;28;20057;-58
2023/08/26 10:39:11;;;;;;;8.68;3.00;;;28.90;30.30;;;;;;20911703;28;20084;-57
2023/08/26 10:49:12;;;;;;;13.57;3.33;;;29.00;30.30;;;;;;20911175;28;20433;-57
2023/08/26 10:59:13;;;;;;;11.82;3.00;;;29.10;29.60;;;;;;20914817;28;20072;-57
2023/08/26 11:09:19;;;;;;;16.13;3.50;;;29.30;30.20;;;;;;20926520;28;20044;-56
2023/08/26 11:19:23;;;;;;;10.02;3.35;;;29.30;31.50;;;;;;20927501;28;20057;-56
2023/08/26 11:29:24;;;;;;;11.88;4.03;;;29.40;29.30;;;;;;20926113;28;20064;-57
2023/08/26 11:39:35;;;;;;;12.48;3.65;;;29.60;27.50;;;;;;20925329;28;20049;-57
2023/08/26 11:49:36;;;;;;;7.65;2.60;;;30.00;26.80;;;;;;20923777;28;20041;-57
2023/08/26 11:59:42;;;;;;;9.50;2.72;;;30.20;26.40;;;;;;20923164;28;20043;-58
2023/08/26 12:09:43;;;;;;;16.83;3.88;;;30.40;25.80;;;;;;20922535;28;20120;-57
2023/08/26 12:19:44;;;;;;;13.63;4.07;;;30.50;26.10;;;;;;20922252;28;20079;-57
2023/08/26 12:29:45;;;;;;;14.38;4.50;;;30.60;26.10;;;;;;20920835;28;20383;-57
2023/08/26 12:39:45;;;;;;;15.45;3.78;;;30.90;26.10;;;;;;20921103;28;20120;-57
2023/08/26 12:49:46;;;;;;;12.65;4.38;;;31.10;26.30;;;;;;20918631;28;20398;-57
2023/08/26 12:59:47;;;;;;;15.40;3.58;;;31.10;26.30;;;;;;20919475;28;20045;-57
2023/08/26 13:09:48;;;;;;;14.38;3.58;;;31.50;25.70;;;;;;20918517;28;20084;-58
2023/08/26 13:19:50;;;;;;;13.57;3.83;;;32.10;25.50;;;;;;20916868;28;20075;-59
2023/08/26 13:29:50;;;;;;;12.68;4.00;;;32.30;25.20;;;;;;20915568;28;20053;-57
2023/08/26 13:39:51;;;;;;;19.70;4.97;;;32.40;24.70;;;;;;20916450;28;20053;-58
2023/08/26 13:49:52;;;;;;;13.85;4.40;;;32.30;23.20;;;;;;20915680;28;20048;-57
2023/08/26 13:59:53;;;;;;;16.67;4.70;;;32.30;23.30;;;;;;20913554;28;20037;-58
2023/08/26 14:09:53;;;;;;;17.55;4.05;;;32.30;22.70;;;;;;20914166;28;20490;-57
2023/08/26 14:19:54;;;;;;;11.88;3.28;;;32.30;23.30;;;;;;20914239;28;20075;-57
2023/08/26 14:29:55;;;;;;;17.02;3.92;;;32.50;22.00;;;;;;20912807;28;20104;-58
2023/08/26 14:39:56;;;;;;;11.77;3.70;;;32.60;22.40;;;;;;20927338;28;20052;-57
2023/08/26 14:49:56;;;;;;;11.32;3.35;;;32.80;22.60;;;;;;20928106;28;20048;-57
2023/08/26 14:59:57;;;;;;;26.30;4.57;;;32.90;21.10;;;;;;20928811;28;20064;-57
2023/08/26 15:09:58;;;;;;;11.60;3.90;;;33.10;21.60;;;;;;20926776;28;20344;-59
2023/08/26 15:19:59;;;;;;;12.88;3.63;;;32.90;20.80;;;;;;20927120;28;20412;-57
2023/08/26 15:30:00;;;;;;;13.65;3.05;;;32.80;20.20;;;;;;20925552;28;20413;-58
2023/08/26 15:40:02;;;;;;;15.20;3.92;;;32.90;19.30;;;;;;20925865;28;20081;-57
2023/08/26 15:50:06;;;;;;;15.23;4.50;;;32.80;19.20;;;;;;20923857;28;20398;-58
2023/08/26 16:00:07;;;;;;;13.50;3.75;;;32.70;18.80;;;;;;20923889;28;20041;-58
2023/08/26 16:10:08;;;;;;;19.90;4.10;;;32.50;18.40;;;;;;20921585;28;20048;-57
2023/08/26 16:20:09;;;;;;;16.27;3.60;;;32.20;18.40;;;;;;20922533;28;20045;-57
2023/08/26 16:30:11;;;;;;;8.90;3.08;;;32.10;18.60;;;;;;20920969;28;20053;-58
2023/08/26 16:40:12;;;;;;;4.95;2.70;;;32.20;18.60;;;;;;20921084;28;20057;-57
2023/08/26 16:50:12;;;;;;;8.32;1.98;;;32.10;19.00;;;;;;20919186;28;20053;-57
2023/08/26 17:00:13;;;;;;;4.95;1.85;;;31.90;19.60;;;;;;20918499;28;20394;-57
2023/08/26 17:10:14;;;;;;;7.10;2.70;;;31.80;19.60;;;;;;20918399;28;20406;-57
2023/08/26 17:20:15;;;;;;;7.15;2.25;;;31.70;20.30;;;;;;20917472;28;20124;-58
2023/08/26 17:30:15;;;;;;;14.40;2.63;;;31.60;19.80;;;;;;20915873;28;20049;-57
2023/08/26 17:40:16;;;;;;;3.67;2.35;;;31.50;19.10;;;;;;20914905;28;20057;-58
2023/08/26 17:50:17;;;;;;;5.65;2.38;;;31.30;19.50;;;;;;20915713;28;20077;-57
2023/08/26 18:00:18;;;;;;;7.00;2.90;;;31.10;19.70;;;;;;20915165;28;20465;-58
2023/08/26 18:10:19;;;;;;;5.55;2.53;;;31.10;20.00;;;;;;20914459;28;20045;-59
2023/08/26 18:20:20;;;;;;;5.80;3.25;;;31.00;19.30;;;;;;20913644;28;20103;-58
2023/08/26 18:30:21;;;;;;;6.72;2.63;;;30.80;19.10;;;;;;20912676;28;20053;-58
2023/08/26 18:40:23;;;;;;;6.30;2.80;;;30.60;19.20;;;;;;20911589;28;20055;-58
2023/08/26 18:50:24;;;;;;;7.13;2.95;;;30.40;19.50;;;;;;20912117;28;20128;-57
2023/08/26 19:00:25;;;;;;;4.55;2.78;;;30.10;19.50;;;;;;20911968;28;20087;-58
2023/08/26 19:10:25;;;;;;;6.30;3.15;;;30.00;19.30;;;;;;20911225;28;20045;-56
2023/08/26 19:20:26;;;;;;;6.05;3.20;;;29.90;18.90;;;;;;20912891;28;20122;-59
2023/08/26 19:30:27;;;;;;;5.63;3.67;;;29.70;18.70;;;;;;20925552;28;20452;-59
2023/08/26 19:40:28;;;;;;;6.13;3.92;;;29.50;20.40;;;;;;20925294;28;20048;-57
2023/08/26 19:50:29;;;;;;;7.80;3.95;;;29.20;23.40;;;;;;20925154;28;20128;-57
2023/08/26 20:00:29;;;;;;;4.65;3.10;;;28.80;24.50;;;;;;20924215;28;20076;-57
2023/08/26 20:10:30;;;;;;;5.88;2.60;;;28.60;25.50;;;;;;20922761;28;20077;-56
2023/08/26 20:20:31;;;;;;;;;;;28.20;26.00;;;;;;20923435;28;20045;-57
2023/08/26 20:30:32;;;;;;;6.23;3.17;;;27.60;27.20;;;;;;20920546;28;19920;-58
2023/08/26 20:40:37;;;;;;;11.53;3.27;;;27.30;27.70;;;;;;20921535;28;20072;-57
2023/08/26 20:50:38;;;;;;;4.05;2.22;;;27.00;28.10;;;;;;20919532;28;20095;-58
2023/08/26 21:00:40;;;;;;;4.33;2.37;;;26.80;27.90;;;;;;20919551;28;20513;-58
2023/08/26 21:10:40;;;;;;;7.20;2.53;;;26.50;28.00;;;;;;20918559;28;20049;-57
2023/08/26 21:20:41;;;;;;;5.50;2.67;;;26.50;27.00;;;;;;20917888;28;20091;-56
2023/08/26 21:30:42;;;;;;;2.60;1.90;;;26.30;26.20;;;;;;20915716;28;20384;-56
2023/08/26 21:40:43;;;;;;;6.10;2.10;;;26.10;26.60;;;;;;20916625;28;20402;-56
2023/08/26 21:50:44;;;;;;;8.20;5.20;;;26.10;26.30;;;;;;20915194;28;20051;-57
2023/08/26 22:00:45;;;;;;;4.23;2.00;;;26.10;26.30;;;;;;20915318;28;20377;-57
2023/08/26 22:10:45;;;;;;;2.50;1.60;;;25.90;26.60;;;;;;20914595;28;20055;-58
2023/08/26 22:20:46;;;;;;;3.67;1.70;;;25.70;26.50;;;;;;20914096;28;20083;-58
2023/08/26 22:30:48;;;;;;;6.30;1.90;;;25.60;26.50;;;;;;20913914;28;20084;-57
2023/08/26 22:40:49;;;;;;;3.20;1.58;;;25.50;26.90;;;;;;20913303;28;20045;-56
2023/08/26 22:50:49;;;;;;;5.13;1.80;;;25.40;26.80;;;;;;20912804;28;20073;-58
2023/08/26 23:00:50;;;;;;;2.00;1.40;;;25.20;28.00;;;;;;20924391;28;20116;-57
2023/08/26 23:10:51;;;;;;;4.63;1.67;;;25.00;28.00;;;;;;20927091;28;20076;-57
2023/08/26 23:20:52;;;;;;;3.03;1.57;;;24.90;28.60;;;;;;20927735;28;20045;-57
2023/08/26 23:30:52;;;;;;;3.73;1.40;;;24.90;29.10;;;;;;20925067;28;20442;-57
2023/08/26 23:40:53;;;;;;;5.63;1.50;;;24.80;30.00;;;;;;20926156;28;20506;-57
2023/08/26 23:50:54;;;;;;;6.70;1.88;;;24.60;32.10;;;;;;20925131;28;20433;-56
